sensor_id;sensor_type;location;lat;lon;timestamp;P1;durP1;ratioP1;P2;durP2;ratioP2
74328;SDS011;62745;51.060;13.786;2022-09-09T00:02:04;3.67;;;1.52;;
74328;SDS011;62745;51.060;13.786;2022-09-09T00:04:40;3.75;;;1.73;;
74328;SDS011;62745;51.060;13.786;2022-09-09T00:07:26;3.28;;;1.30;;
74328;SDS011;62745;51.060;13.786;2022-09-09T00:10:17;2.80;;;1.30;;
74328;SDS011;62745;51.060;13.786;2022-09-09T00:12:57;5.15;;;1.70;;
74328;SDS011;62745;51.060;13.786;2022-09-09T00:15:28;5.07;;;1.75;;
74328;SDS011;62745;51.060;13.786;2022-09-09T00:20:38;3.58;;;1.70;;
74328;SDS011;62745;51.060;13.786;2022-09-09T00:28:44;3.95;;;1.65;;
74328;SDS011;62745;51.060;13.786;2022-09-09T00:31:18;3.25;;;1.45;;
74328;SDS011;62745;51.060;13.786;2022-09-09T00:33:48;3.13;;;1.40;;
74328;SDS011;62745;51.060;13.786;2022-09-09T00:36:17;5.82;;;1.80;;
74328;SDS011;62745;51.060;13.786;2022-09-09T00:38:51;4.30;;;1.55;;
74328;SDS011;62745;51.060;13.786;2022-09-09T00:57:46;5.20;;;1.80;;
74328;SDS011;62745;51.060;13.786;2022-09-09T01:00:21;6.50;;;1.60;;
74328;SDS011;62745;51.060;13.786;2022-09-09T01:05:54;2.40;;;1.20;;
74328;SDS011;62745;51.060;13.786;2022-09-09T01:08:48;5.68;;;1.42;;
74328;SDS011;62745;51.060;13.786;2022-09-09T01:11:22;3.80;;;1.70;;
74328;SDS011;62745;51.060;13.786;2022-09-09T01:13:53;3.88;;;1.50;;
74328;SDS011;62745;51.060;13.786;2022-09-09T01:16:25;5.22;;;1.88;;
74328;SDS011;62745;51.060;13.786;2022-09-09T01:18:54;3.63;;;1.70;;
74328;SDS011;62745;51.060;13.786;2022-09-09T01:21:31;4.45;;;1.70;;
74328;SDS011;62745;51.060;13.786;2022-09-09T01:24:08;7.43;;;1.55;;
74328;SDS011;62745;51.060;13.786;2022-09-09T01:26:41;5.25;;;1.90;;
74328;SDS011;62745;51.060;13.786;2022-09-09T01:29:09;3.60;;;1.40;;
74328;SDS011;62745;51.060;13.786;2022-09-09T01:34:19;4.78;;;1.83;;
74328;SDS011;62745;51.060;13.786;2022-09-09T01:39:31;3.25;;;1.60;;
74328;SDS011;62745;51.060;13.786;2022-09-09T01:41:59;3.38;;;1.70;;
74328;SDS011;62745;51.060;13.786;2022-09-09T01:44:26;3.50;;;1.67;;
74328;SDS011;62745;51.060;13.786;2022-09-09T01:46:52;3.65;;;1.70;;
74328;SDS011;62745;51.060;13.786;2022-09-09T01:49:18;5.38;;;1.95;;
74328;SDS011;62745;51.060;13.786;2022-09-09T01:51:43;5.55;;;1.77;;
74328;SDS011;62745;51.060;13.786;2022-09-09T02:02:32;3.28;;;1.45;;
74328;SDS011;62745;51.060;13.786;2022-09-09T02:10:16;4.43;;;2.10;;
74328;SDS011;62745;51.060;13.786;2022-09-09T02:15:29;4.90;;;1.70;;
74328;SDS011;62745;51.060;13.786;2022-09-09T02:17:59;5.07;;;1.67;;
74328;SDS011;62745;51.060;13.786;2022-09-09T02:20:31;5.20;;;1.70;;
74328;SDS011;62745;51.060;13.786;2022-09-09T02:22:58;3.90;;;2.05;;
74328;SDS011;62745;51.060;13.786;2022-09-09T02:25:26;4.30;;;1.90;;
74328;SDS011;62745;51.060;13.786;2022-09-09T02:27:54;5.15;;;1.80;;
74328;SDS011;62745;51.060;13.786;2022-09-09T02:30:20;4.35;;;1.60;;
74328;SDS011;62745;51.060;13.786;2022-09-09T02:32:46;4.22;;;1.77;;
74328;SDS011;62745;51.060;13.786;2022-09-09T02:35:17;4.50;;;1.50;;
74328;SDS011;62745;51.060;13.786;2022-09-09T02:37:45;7.38;;;2.30;;
74328;SDS011;62745;51.060;13.786;2022-09-09T02:40:11;3.83;;;1.50;;
74328;SDS011;62745;51.060;13.786;2022-09-09T02:42:43;3.65;;;1.45;;
74328;SDS011;62745;51.060;13.786;2022-09-09T02:45:12;5.10;;;1.83;;
74328;SDS011;62745;51.060;13.786;2022-09-09T02:50:35;5.95;;;1.52;;
74328;SDS011;62745;51.060;13.786;2022-09-09T02:55:58;5.80;;;1.80;;
74328;SDS011;62745;51.060;13.786;2022-09-09T02:58:29;4.75;;;1.67;;
74328;SDS011;62745;51.060;13.786;2022-09-09T03:00:54;4.15;;;1.60;;
74328;SDS011;62745;51.060;13.786;2022-09-09T03:03:22;6.13;;;1.58;;
74328;SDS011;62745;51.060;13.786;2022-09-09T03:05:48;6.22;;;1.73;;
74328;SDS011;62745;51.060;13.786;2022-09-09T03:08:14;4.68;;;1.75;;
74328;SDS011;62745;51.060;13.786;2022-09-09T03:10:39;4.18;;;1.58;;
74328;SDS011;62745;51.060;13.786;2022-09-09T03:13:05;3.53;;;1.75;;
74328;SDS011;62745;51.060;13.786;2022-09-09T03:15:31;5.82;;;1.75;;
74328;SDS011;62745;51.060;13.786;2022-09-09T03:17:57;4.85;;;1.88;;
74328;SDS011;62745;51.060;13.786;2022-09-09T03:20:24;4.30;;;1.83;;
74328;SDS011;62745;51.060;13.786;2022-09-09T03:22:51;5.65;;;1.90;;
74328;SDS011;62745;51.060;13.786;2022-09-09T03:25:17;3.30;;;1.80;;
74328;SDS011;62745;51.060;13.786;2022-09-09T03:27:43;4.60;;;1.83;;
74328;SDS011;62745;51.060;13.786;2022-09-09T03:30:08;9.50;;;2.20;;
74328;SDS011;62745;51.060;13.786;2022-09-09T03:32:34;4.35;;;1.90;;
74328;SDS011;62745;51.060;13.786;2022-09-09T03:34:59;4.72;;;2.10;;
74328;SDS011;62745;51.060;13.786;2022-09-09T03:37:25;3.90;;;2.10;;
74328;SDS011;62745;51.060;13.786;2022-09-09T03:39:50;4.60;;;2.07;;
74328;SDS011;62745;51.060;13.786;2022-09-09T03:42:15;5.13;;;2.07;;
74328;SDS011;62745;51.060;13.786;2022-09-09T03:44:44;4.68;;;1.92;;
74328;SDS011;62745;51.060;13.786;2022-09-09T03:47:14;5.97;;;1.60;;
74328;SDS011;62745;51.060;13.786;2022-09-09T03:49:40;4.15;;;1.77;;
74328;SDS011;62745;51.060;13.786;2022-09-09T03:52:05;5.53;;;1.80;;
74328;SDS011;62745;51.060;13.786;2022-09-09T03:54:30;3.73;;;1.80;;
74328;SDS011;62745;51.060;13.786;2022-09-09T03:56:55;4.27;;;1.80;;
74328;SDS011;62745;51.060;13.786;2022-09-09T03:59:21;3.60;;;1.80;;
74328;SDS011;62745;51.060;13.786;2022-09-09T04:01:47;4.53;;;1.63;;
74328;SDS011;62745;51.060;13.786;2022-09-09T04:04:12;3.83;;;1.90;;
74328;SDS011;62745;51.060;13.786;2022-09-09T04:06:37;6.07;;;1.95;;
74328;SDS011;62745;51.060;13.786;2022-09-09T04:09:03;3.58;;;1.70;;
74328;SDS011;62745;51.060;13.786;2022-09-09T04:11:28;4.37;;;1.70;;
74328;SDS011;62745;51.060;13.786;2022-09-09T04:13:54;3.55;;;1.95;;
74328;SDS011;62745;51.060;13.786;2022-09-09T04:16:19;4.37;;;1.87;;
74328;SDS011;62745;51.060;13.786;2022-09-09T04:18:45;5.75;;;1.85;;
74328;SDS011;62745;51.060;13.786;2022-09-09T04:21:10;3.13;;;1.63;;
74328;SDS011;62745;51.060;13.786;2022-09-09T04:23:37;4.25;;;1.77;;
74328;SDS011;62745;51.060;13.786;2022-09-09T04:26:02;6.87;;;2.03;;
74328;SDS011;62745;51.060;13.786;2022-09-09T04:28:29;5.13;;;2.17;;
74328;SDS011;62745;51.060;13.786;2022-09-09T04:30:56;3.67;;;2.03;;
74328;SDS011;62745;51.060;13.786;2022-09-09T04:33:23;4.93;;;1.90;;
74328;SDS011;62745;51.060;13.786;2022-09-09T04:35:51;4.53;;;2.00;;
74328;SDS011;62745;51.060;13.786;2022-09-09T04:38:17;3.70;;;1.80;;
74328;SDS011;62745;51.060;13.786;2022-09-09T04:40:46;6.20;;;1.90;;
74328;SDS011;62745;51.060;13.786;2022-09-09T04:43:12;5.45;;;1.90;;
74328;SDS011;62745;51.060;13.786;2022-09-09T04:45:39;7.90;;;1.95;;
74328;SDS011;62745;51.060;13.786;2022-09-09T04:48:05;6.45;;;1.98;;
74328;SDS011;62745;51.060;13.786;2022-09-09T04:50:31;3.67;;;1.75;;
74328;SDS011;62745;51.060;13.786;2022-09-09T04:52:59;5.05;;;2.00;;
74328;SDS011;62745;51.060;13.786;2022-09-09T04:55:25;4.10;;;1.70;;
74328;SDS011;62745;51.060;13.786;2022-09-09T04:57:51;5.33;;;2.10;;
74328;SDS011;62745;51.060;13.786;2022-09-09T05:00:16;5.30;;;1.67;;
74328;SDS011;62745;51.060;13.786;2022-09-09T05:02:42;5.25;;;1.60;;
74328;SDS011;62745;51.060;13.786;2022-09-09T05:05:07;6.63;;;1.98;;
74328;SDS011;62745;51.060;13.786;2022-09-09T05:07:33;5.75;;;2.30;;
74328;SDS011;62745;51.060;13.786;2022-09-09T05:09:58;5.33;;;1.93;;
74328;SDS011;62745;51.060;13.786;2022-09-09T05:12:24;6.63;;;2.33;;
74328;SDS011;62745;51.060;13.786;2022-09-09T05:14:50;5.70;;;1.90;;
74328;SDS011;62745;51.060;13.786;2022-09-09T05:17:16;7.00;;;1.88;;
74328;SDS011;62745;51.060;13.786;2022-09-09T05:19:41;4.83;;;1.70;;
74328;SDS011;62745;51.060;13.786;2022-09-09T05:22:06;4.30;;;1.90;;
74328;SDS011;62745;51.060;13.786;2022-09-09T05:24:32;5.72;;;1.90;;
74328;SDS011;62745;51.060;13.786;2022-09-09T05:26:58;4.82;;;1.83;;
74328;SDS011;62745;51.060;13.786;2022-09-09T05:29:25;6.07;;;1.70;;
74328;SDS011;62745;51.060;13.786;2022-09-09T05:31:51;6.45;;;1.85;;
74328;SDS011;62745;51.060;13.786;2022-09-09T05:34:16;3.77;;;1.90;;
74328;SDS011;62745;51.060;13.786;2022-09-09T05:36:42;3.33;;;1.50;;
74328;SDS011;62745;51.060;13.786;2022-09-09T05:39:07;3.67;;;1.60;;
74328;SDS011;62745;51.060;13.786;2022-09-09T05:41:32;5.30;;;1.70;;
74328;SDS011;62745;51.060;13.786;2022-09-09T05:43:57;4.57;;;1.73;;
74328;SDS011;62745;51.060;13.786;2022-09-09T05:46:26;5.30;;;1.83;;
74328;SDS011;62745;51.060;13.786;2022-09-09T05:48:52;4.00;;;1.83;;
74328;SDS011;62745;51.060;13.786;2022-09-09T05:51:19;5.43;;;2.10;;
74328;SDS011;62745;51.060;13.786;2022-09-09T05:53:46;4.05;;;1.92;;
74328;SDS011;62745;51.060;13.786;2022-09-09T05:56:13;6.18;;;2.10;;
74328;SDS011;62745;51.060;13.786;2022-09-09T05:58:41;4.57;;;1.83;;
74328;SDS011;62745;51.060;13.786;2022-09-09T06:01:10;4.25;;;1.70;;
74328;SDS011;62745;51.060;13.786;2022-09-09T06:03:37;5.43;;;1.92;;
74328;SDS011;62745;51.060;13.786;2022-09-09T06:06:05;4.45;;;1.60;;
74328;SDS011;62745;51.060;13.786;2022-09-09T06:08:36;3.50;;;1.83;;
74328;SDS011;62745;51.060;13.786;2022-09-09T06:11:04;5.68;;;1.92;;
74328;SDS011;62745;51.060;13.786;2022-09-09T06:19:21;5.53;;;1.48;;
74328;SDS011;62745;51.060;13.786;2022-09-09T06:21:46;5.53;;;1.60;;
74328;SDS011;62745;51.060;13.786;2022-09-09T06:24:12;2.95;;;1.45;;
74328;SDS011;62745;51.060;13.786;2022-09-09T06:26:42;6.05;;;1.58;;
74328;SDS011;62745;51.060;13.786;2022-09-09T06:29:07;5.07;;;1.67;;
74328;SDS011;62745;51.060;13.786;2022-09-09T06:31:34;4.82;;;1.30;;
74328;SDS011;62745;51.060;13.786;2022-09-09T06:34:01;3.40;;;1.38;;
74328;SDS011;62745;51.060;13.786;2022-09-09T06:36:31;4.97;;;1.50;;
74328;SDS011;62745;51.060;13.786;2022-09-09T06:38:57;4.05;;;1.45;;
74328;SDS011;62745;51.060;13.786;2022-09-09T06:41:24;3.50;;;1.40;;
74328;SDS011;62745;51.060;13.786;2022-09-09T06:43:53;6.50;;;1.52;;
74328;SDS011;62745;51.060;13.786;2022-09-09T06:46:23;4.15;;;1.50;;
74328;SDS011;62745;51.060;13.786;2022-09-09T06:48:54;3.80;;;1.95;;
74328;SDS011;62745;51.060;13.786;2022-09-09T06:51:25;3.55;;;1.60;;
74328;SDS011;62745;51.060;13.786;2022-09-09T06:53:53;4.55;;;1.65;;
74328;SDS011;62745;51.060;13.786;2022-09-09T06:56:24;5.00;;;1.45;;
74328;SDS011;62745;51.060;13.786;2022-09-09T06:58:58;3.70;;;1.50;;
74328;SDS011;62745;51.060;13.786;2022-09-09T07:01:26;4.88;;;1.52;;
74328;SDS011;62745;51.060;13.786;2022-09-09T07:03:54;3.85;;;1.40;;
74328;SDS011;62745;51.060;13.786;2022-09-09T07:06:22;3.85;;;1.50;;
74328;SDS011;62745;51.060;13.786;2022-09-09T07:08:49;3.83;;;1.30;;
74328;SDS011;62745;51.060;13.786;2022-09-09T07:13:44;5.15;;;1.30;;
74328;SDS011;62745;51.060;13.786;2022-09-09T07:16:10;4.10;;;1.30;;
74328;SDS011;62745;51.060;13.786;2022-09-09T07:18:38;3.13;;;1.10;;
74328;SDS011;62745;51.060;13.786;2022-09-09T07:21:04;2.80;;;1.23;;
74328;SDS011;62745;51.060;13.786;2022-09-09T07:23:31;5.70;;;1.92;;
74328;SDS011;62745;51.060;13.786;2022-09-09T07:25:57;9.50;;;5.22;;
74328;SDS011;62745;51.060;13.786;2022-09-09T07:28:23;5.38;;;1.25;;
74328;SDS011;62745;51.060;13.786;2022-09-09T07:30:53;3.22;;;1.23;;
74328;SDS011;62745;51.060;13.786;2022-09-09T07:33:22;3.63;;;1.15;;
74328;SDS011;62745;51.060;13.786;2022-09-09T07:35:48;2.90;;;1.20;;
74328;SDS011;62745;51.060;13.786;2022-09-09T07:38:13;2.53;;;0.90;;
74328;SDS011;62745;51.060;13.786;2022-09-09T07:40:39;4.90;;;1.30;;
74328;SDS011;62745;51.060;13.786;2022-09-09T07:43:05;4.80;;;1.20;;
74328;SDS011;62745;51.060;13.786;2022-09-09T07:45:30;5.73;;;1.37;;
74328;SDS011;62745;51.060;13.786;2022-09-09T07:47:58;3.17;;;1.10;;
74328;SDS011;62745;51.060;13.786;2022-09-09T07:50:23;3.80;;;1.10;;
74328;SDS011;62745;51.060;13.786;2022-09-09T07:52:50;2.60;;;1.08;;
74328;SDS011;62745;51.060;13.786;2022-09-09T07:55:16;4.68;;;1.10;;
74328;SDS011;62745;51.060;13.786;2022-09-09T07:57:41;3.27;;;1.20;;
74328;SDS011;62745;51.060;13.786;2022-09-09T08:00:06;4.00;;;1.20;;
74328;SDS011;62745;51.060;13.786;2022-09-09T08:02:32;3.30;;;1.15;;
74328;SDS011;62745;51.060;13.786;2022-09-09T08:04:57;2.83;;;1.03;;
74328;SDS011;62745;51.060;13.786;2022-09-09T08:07:23;1.92;;;0.93;;
74328;SDS011;62745;51.060;13.786;2022-09-09T08:09:48;3.05;;;1.23;;
74328;SDS011;62745;51.060;13.786;2022-09-09T08:12:14;3.28;;;1.00;;
74328;SDS011;62745;51.060;13.786;2022-09-09T08:14:39;3.93;;;1.33;;
74328;SDS011;62745;51.060;13.786;2022-09-09T08:17:05;5.32;;;1.00;;
74328;SDS011;62745;51.060;13.786;2022-09-09T08:19:30;5.10;;;1.17;;
74328;SDS011;62745;51.060;13.786;2022-09-09T08:21:58;3.20;;;0.90;;
74328;SDS011;62745;51.060;13.786;2022-09-09T08:24:24;5.38;;;1.35;;
74328;SDS011;62745;51.060;13.786;2022-09-09T08:26:49;3.70;;;1.40;;
74328;SDS011;62745;51.060;13.786;2022-09-09T08:29:15;4.45;;;1.23;;
74328;SDS011;62745;51.060;13.786;2022-09-09T08:31:42;3.40;;;1.02;;
74328;SDS011;62745;51.060;13.786;2022-09-09T08:34:10;3.42;;;1.23;;
74328;SDS011;62745;51.060;13.786;2022-09-09T08:36:37;3.40;;;1.25;;
74328;SDS011;62745;51.060;13.786;2022-09-09T08:39:05;2.60;;;1.20;;
74328;SDS011;62745;51.060;13.786;2022-09-09T08:55:35;5.45;;;1.52;;
74328;SDS011;62745;51.060;13.786;2022-09-09T08:58:16;3.45;;;1.23;;
74328;SDS011;62745;51.060;13.786;2022-09-09T09:00:47;3.90;;;1.30;;
74328;SDS011;62745;51.060;13.786;2022-09-09T09:03:43;3.30;;;1.30;;
74328;SDS011;62745;51.060;13.786;2022-09-09T09:12:17;2.92;;;1.15;;
74328;SDS011;62745;51.060;13.786;2022-09-09T09:14:46;4.45;;;1.20;;
74328;SDS011;62745;51.060;13.786;2022-09-09T09:17:14;3.45;;;1.20;;
74328;SDS011;62745;51.060;13.786;2022-09-09T09:19:42;7.15;;;1.48;;
74328;SDS011;62745;51.060;13.786;2022-09-09T09:22:21;3.92;;;1.40;;
74328;SDS011;62745;51.060;13.786;2022-09-09T09:25:01;3.92;;;1.33;;
74328;SDS011;62745;51.060;13.786;2022-09-09T09:27:40;3.38;;;1.45;;
74328;SDS011;62745;51.060;13.786;2022-09-09T09:30:17;4.90;;;1.67;;
74328;SDS011;62745;51.060;13.786;2022-09-09T09:32:54;3.95;;;1.30;;
74328;SDS011;62745;51.060;13.786;2022-09-09T09:35:25;3.83;;;1.00;;
74328;SDS011;62745;51.060;13.786;2022-09-09T09:37:50;6.03;;;1.03;;
74328;SDS011;62745;51.060;13.786;2022-09-09T09:40:17;4.03;;;1.10;;
74328;SDS011;62745;51.060;13.786;2022-09-09T09:42:48;5.60;;;1.10;;
74328;SDS011;62745;51.060;13.786;2022-09-09T09:45:35;3.53;;;1.02;;
74328;SDS011;62745;51.060;13.786;2022-09-09T09:48:10;5.50;;;1.90;;
74328;SDS011;62745;51.060;13.786;2022-09-09T09:50:46;8.02;;;3.60;;
74328;SDS011;62745;51.060;13.786;2022-09-09T09:53:32;4.70;;;1.23;;
74328;SDS011;62745;51.060;13.786;2022-09-09T09:56:03;6.47;;;1.20;;
74328;SDS011;62745;51.060;13.786;2022-09-09T09:58:32;5.30;;;1.10;;
74328;SDS011;62745;51.060;13.786;2022-09-09T10:01:02;4.30;;;1.35;;
74328;SDS011;62745;51.060;13.786;2022-09-09T10:03:29;5.72;;;1.00;;
74328;SDS011;62745;51.060;13.786;2022-09-09T10:05:56;4.72;;;1.25;;
74328;SDS011;62745;51.060;13.786;2022-09-09T10:08:22;4.18;;;0.88;;
74328;SDS011;62745;51.060;13.786;2022-09-09T10:10:52;2.67;;;0.85;;
74328;SDS011;62745;51.060;13.786;2022-09-09T10:16:31;3.63;;;0.82;;
74328;SDS011;62745;51.060;13.786;2022-09-09T10:19:26;2.95;;;0.80;;
74328;SDS011;62745;51.060;13.786;2022-09-09T10:22:02;2.70;;;0.70;;
74328;SDS011;62745;51.060;13.786;2022-09-09T10:30:44;4.53;;;1.10;;
74328;SDS011;62745;51.060;13.786;2022-09-09T10:33:28;2.10;;;0.70;;
74328;SDS011;62745;51.060;13.786;2022-09-09T10:38:47;4.80;;;1.17;;
74328;SDS011;62745;51.060;13.786;2022-09-09T10:41:26;3.35;;;0.93;;
74328;SDS011;62745;51.060;13.786;2022-09-09T10:44:23;4.05;;;1.00;;
74328;SDS011;62745;51.060;13.786;2022-09-09T10:47:13;5.53;;;1.33;;
74328;SDS011;62745;51.060;13.786;2022-09-09T10:52:38;2.45;;;0.90;;
74328;SDS011;62745;51.060;13.786;2022-09-09T10:55:23;2.92;;;0.88;;
74328;SDS011;62745;51.060;13.786;2022-09-09T10:57:56;4.82;;;0.98;;
74328;SDS011;62745;51.060;13.786;2022-09-09T11:03:02;3.53;;;0.80;;
74328;SDS011;62745;51.060;13.786;2022-09-09T11:08:18;4.35;;;1.00;;
74328;SDS011;62745;51.060;13.786;2022-09-09T11:10:46;4.60;;;1.27;;
74328;SDS011;62745;51.060;13.786;2022-09-09T11:15:58;6.00;;;1.15;;
74328;SDS011;62745;51.060;13.786;2022-09-09T11:18:29;5.97;;;1.02;;
74328;SDS011;62745;51.060;13.786;2022-09-09T11:21:01;2.92;;;1.00;;
74328;SDS011;62745;51.060;13.786;2022-09-09T11:23:39;2.70;;;0.90;;
74328;SDS011;62745;51.060;13.786;2022-09-09T11:26:10;3.55;;;1.15;;
74328;SDS011;62745;51.060;13.786;2022-09-09T11:29:17;5.35;;;1.20;;
74328;SDS011;62745;51.060;13.786;2022-09-09T11:31:57;2.95;;;0.90;;
74328;SDS011;62745;51.060;13.786;2022-09-09T11:34:36;2.95;;;0.80;;
74328;SDS011;62745;51.060;13.786;2022-09-09T11:37:23;3.97;;;0.93;;
74328;SDS011;62745;51.060;13.786;2022-09-09T11:42:46;4.72;;;1.00;;
74328;SDS011;62745;51.060;13.786;2022-09-09T11:45:22;3.53;;;1.00;;
74328;SDS011;62745;51.060;13.786;2022-09-09T11:47:51;4.80;;;0.95;;
74328;SDS011;62745;51.060;13.786;2022-09-09T11:52:44;2.73;;;0.90;;
74328;SDS011;62745;51.060;13.786;2022-09-09T11:55:20;3.55;;;0.82;;
74328;SDS011;62745;51.060;13.786;2022-09-09T11:57:56;4.53;;;0.95;;
74328;SDS011;62745;51.060;13.786;2022-09-09T12:00:30;4.15;;;1.05;;
74328;SDS011;62745;51.060;13.786;2022-09-09T12:02:58;2.95;;;1.08;;
74328;SDS011;62745;51.060;13.786;2022-09-09T12:05:23;3.70;;;0.98;;
74328;SDS011;62745;51.060;13.786;2022-09-09T12:08:05;5.90;;;1.25;;
74328;SDS011;62745;51.060;13.786;2022-09-09T12:10:35;3.30;;;1.10;;
74328;SDS011;62745;51.060;13.786;2022-09-09T12:15:47;3.90;;;1.10;;
74328;SDS011;62745;51.060;13.786;2022-09-09T12:18:14;5.53;;;1.33;;
74328;SDS011;62745;51.060;13.786;2022-09-09T12:20:58;5.63;;;1.23;;
74328;SDS011;62745;51.060;13.786;2022-09-09T12:23:45;4.40;;;1.20;;
74328;SDS011;62745;51.060;13.786;2022-09-09T12:26:34;3.72;;;0.93;;
74328;SDS011;62745;51.060;13.786;2022-09-09T12:31:45;4.82;;;1.17;;
74328;SDS011;62745;51.060;13.786;2022-09-09T12:37:27;5.10;;;1.35;;
74328;SDS011;62745;51.060;13.786;2022-09-09T12:42:47;4.88;;;1.50;;
74328;SDS011;62745;51.060;13.786;2022-09-09T12:45:20;3.75;;;1.20;;
74328;SDS011;62745;51.060;13.786;2022-09-09T12:47:54;6.15;;;1.20;;
74328;SDS011;62745;51.060;13.786;2022-09-09T12:50:32;3.97;;;1.05;;
74328;SDS011;62745;51.060;13.786;2022-09-09T12:53:03;4.13;;;1.10;;
74328;SDS011;62745;51.060;13.786;2022-09-09T12:55:35;4.47;;;1.10;;
74328;SDS011;62745;51.060;13.786;2022-09-09T12:58:03;3.58;;;1.08;;
74328;SDS011;62745;51.060;13.786;2022-09-09T13:00:30;4.50;;;1.20;;
74328;SDS011;62745;51.060;13.786;2022-09-09T13:02:57;4.43;;;1.25;;
74328;SDS011;62745;51.060;13.786;2022-09-09T13:05:33;4.47;;;1.30;;
74328;SDS011;62745;51.060;13.786;2022-09-09T13:08:00;3.90;;;1.00;;
74328;SDS011;62745;51.060;13.786;2022-09-09T13:10:28;5.72;;;1.25;;
74328;SDS011;62745;51.060;13.786;2022-09-09T13:12:58;6.10;;;1.25;;
74328;SDS011;62745;51.060;13.786;2022-09-09T13:15:25;5.72;;;1.10;;
74328;SDS011;62745;51.060;13.786;2022-09-09T13:17:54;8.23;;;1.48;;
74328;SDS011;62745;51.060;13.786;2022-09-09T13:20:21;2.60;;;0.95;;
74328;SDS011;62745;51.060;13.786;2022-09-09T13:22:49;4.30;;;1.02;;
74328;SDS011;62745;51.060;13.786;2022-09-09T13:25:18;2.63;;;0.98;;
74328;SDS011;62745;51.060;13.786;2022-09-09T13:27:54;3.63;;;1.10;;
74328;SDS011;62745;51.060;13.786;2022-09-09T13:32:59;4.68;;;1.00;;
74328;SDS011;62745;51.060;13.786;2022-09-09T13:35:34;4.47;;;1.20;;
74328;SDS011;62745;51.060;13.786;2022-09-09T13:38:07;4.68;;;1.15;;
74328;SDS011;62745;51.060;13.786;2022-09-09T13:40:34;4.82;;;1.30;;
74328;SDS011;62745;51.060;13.786;2022-09-09T13:43:00;3.90;;;1.10;;
74328;SDS011;62745;51.060;13.786;2022-09-09T13:45:27;2.97;;;1.00;;
74328;SDS011;62745;51.060;13.786;2022-09-09T13:47:53;3.25;;;0.90;;
74328;SDS011;62745;51.060;13.786;2022-09-09T13:50:29;4.25;;;1.10;;
74328;SDS011;62745;51.060;13.786;2022-09-09T13:52:55;3.22;;;1.00;;
74328;SDS011;62745;51.060;13.786;2022-09-09T13:55:23;4.22;;;1.00;;
74328;SDS011;62745;51.060;13.786;2022-09-09T13:57:50;3.05;;;0.90;;
74328;SDS011;62745;51.060;13.786;2022-09-09T14:00:23;3.90;;;1.17;;
74328;SDS011;62745;51.060;13.786;2022-09-09T14:02:52;4.07;;;1.00;;
74328;SDS011;62745;51.060;13.786;2022-09-09T14:05:19;3.97;;;1.23;;
74328;SDS011;62745;51.060;13.786;2022-09-09T14:07:45;3.78;;;1.00;;
74328;SDS011;62745;51.060;13.786;2022-09-09T14:10:11;3.03;;;1.00;;
74328;SDS011;62745;51.060;13.786;2022-09-09T14:12:36;3.70;;;1.20;;
74328;SDS011;62745;51.060;13.786;2022-09-09T14:15:05;3.42;;;1.08;;
74328;SDS011;62745;51.060;13.786;2022-09-09T14:17:32;6.90;;;1.50;;
74328;SDS011;62745;51.060;13.786;2022-09-09T14:19:58;6.60;;;1.65;;
74328;SDS011;62745;51.060;13.786;2022-09-09T14:22:23;4.03;;;1.33;;
74328;SDS011;62745;51.060;13.786;2022-09-09T14:24:49;4.10;;;1.17;;
74328;SDS011;62745;51.060;13.786;2022-09-09T14:27:15;4.78;;;1.33;;
74328;SDS011;62745;51.060;13.786;2022-09-09T14:29:41;4.75;;;1.20;;
74328;SDS011;62745;51.060;13.786;2022-09-09T14:32:07;5.10;;;1.20;;
74328;SDS011;62745;51.060;13.786;2022-09-09T14:34:32;3.35;;;1.02;;
74328;SDS011;62745;51.060;13.786;2022-09-09T14:36:58;4.80;;;1.25;;
74328;SDS011;62745;51.060;13.786;2022-09-09T14:39:24;3.63;;;1.00;;
74328;SDS011;62745;51.060;13.786;2022-09-09T14:41:49;2.97;;;1.00;;
74328;SDS011;62745;51.060;13.786;2022-09-09T14:44:14;4.30;;;1.00;;
74328;SDS011;62745;51.060;13.786;2022-09-09T14:46:40;3.58;;;0.93;;
74328;SDS011;62745;51.060;13.786;2022-09-09T14:49:07;3.42;;;1.30;;
74328;SDS011;62745;51.060;13.786;2022-09-09T14:51:32;2.90;;;1.00;;
74328;SDS011;62745;51.060;13.786;2022-09-09T14:53:58;4.30;;;1.42;;
74328;SDS011;62745;51.060;13.786;2022-09-09T14:56:28;3.63;;;0.98;;
74328;SDS011;62745;51.060;13.786;2022-09-09T14:58:55;5.30;;;1.13;;
74328;SDS011;62745;51.060;13.786;2022-09-09T15:01:21;4.85;;;1.48;;
74328;SDS011;62745;51.060;13.786;2022-09-09T15:03:52;4.50;;;0.95;;
74328;SDS011;62745;51.060;13.786;2022-09-09T15:06:19;3.22;;;0.98;;
74328;SDS011;62745;51.060;13.786;2022-09-09T15:08:45;4.40;;;1.20;;
74328;SDS011;62745;51.060;13.786;2022-09-09T15:11:12;5.22;;;1.13;;
74328;SDS011;62745;51.060;13.786;2022-09-09T15:13:39;4.20;;;1.10;;
74328;SDS011;62745;51.060;13.786;2022-09-09T15:16:12;3.58;;;0.98;;
74328;SDS011;62745;51.060;13.786;2022-09-09T15:18:40;3.45;;;1.10;;
74328;SDS011;62745;51.060;13.786;2022-09-09T15:21:07;4.82;;;1.13;;
74328;SDS011;62745;51.060;13.786;2022-09-09T15:23:40;4.72;;;1.20;;
74328;SDS011;62745;51.060;13.786;2022-09-09T15:26:06;3.72;;;1.30;;
74328;SDS011;62745;51.060;13.786;2022-09-09T15:28:32;2.67;;;1.00;;
74328;SDS011;62745;51.060;13.786;2022-09-09T15:31:24;3.90;;;1.13;;
74328;SDS011;62745;51.060;13.786;2022-09-09T15:33:50;4.43;;;0.90;;
74328;SDS011;62745;51.060;13.786;2022-09-09T15:36:17;3.60;;;1.10;;
74328;SDS011;62745;51.060;13.786;2022-09-09T15:38:44;2.90;;;1.00;;
74328;SDS011;62745;51.060;13.786;2022-09-09T15:41:10;4.30;;;1.10;;
74328;SDS011;62745;51.060;13.786;2022-09-09T15:43:37;3.72;;;1.15;;
74328;SDS011;62745;51.060;13.786;2022-09-09T15:48:52;3.45;;;1.08;;
74328;SDS011;62745;51.060;13.786;2022-09-09T15:51:23;4.53;;;1.15;;
74328;SDS011;62745;51.060;13.786;2022-09-09T15:53:59;4.85;;;0.93;;
74328;SDS011;62745;51.060;13.786;2022-09-09T15:56:25;4.13;;;1.02;;
74328;SDS011;62745;51.060;13.786;2022-09-09T15:58:52;4.32;;;0.90;;
74328;SDS011;62745;51.060;13.786;2022-09-09T16:01:18;4.65;;;1.20;;
74328;SDS011;62745;51.060;13.786;2022-09-09T16:03:44;2.78;;;1.00;;
74328;SDS011;62745;51.060;13.786;2022-09-09T16:06:15;4.32;;;1.00;;
74328;SDS011;62745;51.060;13.786;2022-09-09T16:08:46;3.90;;;1.00;;
74328;SDS011;62745;51.060;13.786;2022-09-09T16:11:14;3.35;;;1.02;;
74328;SDS011;62745;51.060;13.786;2022-09-09T16:13:45;4.78;;;1.42;;
74328;SDS011;62745;51.060;13.786;2022-09-09T16:16:12;3.80;;;1.30;;
74328;SDS011;62745;51.060;13.786;2022-09-09T16:18:39;3.55;;;0.90;;
74328;SDS011;62745;51.060;13.786;2022-09-09T16:21:07;3.67;;;1.00;;
74328;SDS011;62745;51.060;13.786;2022-09-09T16:23:33;3.60;;;1.05;;
74328;SDS011;62745;51.060;13.786;2022-09-09T16:25:58;2.92;;;1.10;;
74328;SDS011;62745;51.060;13.786;2022-09-09T16:28:24;4.83;;;1.00;;
74328;SDS011;62745;51.060;13.786;2022-09-09T16:30:49;3.77;;;1.10;;
74328;SDS011;62745;51.060;13.786;2022-09-09T16:33:14;2.80;;;1.10;;
74328;SDS011;62745;51.060;13.786;2022-09-09T16:35:40;4.00;;;1.20;;
74328;SDS011;62745;51.060;13.786;2022-09-09T16:38:06;5.23;;;1.43;;
74328;SDS011;62745;51.060;13.786;2022-09-09T16:40:35;3.97;;;1.40;;
74328;SDS011;62745;51.060;13.786;2022-09-09T16:43:01;5.38;;;1.40;;
74328;SDS011;62745;51.060;13.786;2022-09-09T16:45:26;5.22;;;1.40;;
74328;SDS011;62745;51.060;13.786;2022-09-09T16:47:52;4.63;;;1.10;;
74328;SDS011;62745;51.060;13.786;2022-09-09T16:50:18;2.63;;;0.90;;
74328;SDS011;62745;51.060;13.786;2022-09-09T16:52:43;3.70;;;1.25;;
74328;SDS011;62745;51.060;13.786;2022-09-09T16:55:08;4.33;;;1.20;;